Portada
METAR-TAF:

METAR-TAF

Aeroports :

Marathon, Florida, Estats Units d'Amèrica

latitud: 24-43-33N, longitud: 081-02-52W, altitud: 2 m

Observació

L'informe es va fer fa 36 minuts, a les 04:53 UTC
Temperatura 28°C
Humitat 84%
Pressió 1015 hPa
Visibilitat: 16.1 km
Escasses núvols a una alçada de 1600 ft

METAR: KMTH 220453Z AUTO 10SM FEW016 28/25 A2998 RMK AO2 SLP152 T02780250 403280250

Hora: 01:29 (05:29 UTC)

Pronòstic

L'informe es va fer fa 1 hora i 29 minuts, a les 04:00 UTC
Pronòstic vàlid del 22 a les 04 UTC al 22 a les 24 UTC
Vent 5 kt del Est
Visibilitat: 10 km
Núvols disperses a una alçada de 2000 ft
Temporalment
l' 22 a les 04 UTC al 22 a les 05 UTC
Cel ennuvolat a una alçada de 1500 ft
A partir de les 22 a les 1200 UTC
Vent 4 kt del Est
Visibilitat: 10 km
Núvols disperses a una alçada de 2500 ft
Núvols disperses a una alçada de 5000 ft
xàfecs en les proximitats

TAF: KMTH 220400Z 2204/2224 08005KT P6SM SCT020 TEMPO 2204/2205 BKN015 FM221200 10004KT P6SM VCSH SCT025 SCT050

Observacions i pronòstics meteorològics de més de 4000 aeroports (METAR i TAF).

Les estacions disponibles són els punts grocs i vermells al mapa.

Posi el ratolí al punt desitjat per veure el nom de l'estació.

Feu clic per veure les observacions i els pronòstics meteorològics.

Per canviar el mapa: feu clic els botons verds amb una creu de color negre per apropar; al botó verd amb un guió per allunyar la imatge; o en les fletxes verdes per a mapes adjacents.


METAR-TAF: